createdAt,value
2022-12-11T00:01:14.142Z,11.00
2022-12-11T00:03:41.774Z,11.07
2022-12-11T00:06:10.658Z,10.73
2022-12-11T00:08:37.967Z,12.13
2022-12-11T00:11:05.948Z,12.13
2022-12-11T00:13:32.775Z,15.25
2022-12-11T00:18:26.747Z,13.32
2022-12-11T00:20:53.625Z,12.95
2022-12-11T00:25:47.922Z,11.57
2022-12-11T00:28:17.031Z,13.15
2022-12-11T00:30:43.981Z,12.10
2022-12-11T00:33:11.702Z,14.07
2022-12-11T00:35:43.850Z,13.40
2022-12-11T00:38:18.075Z,14.10
2022-12-11T00:40:45.103Z,13.07
2022-12-11T00:43:12.568Z,14.52
2022-12-11T00:45:42.359Z,14.95
2022-12-11T00:48:10.156Z,13.45
2022-12-11T00:50:37.230Z,17.83
2022-12-11T00:53:05.082Z,15.73
2022-12-11T00:55:32.317Z,15.00
2022-12-11T00:57:59.162Z,15.02
2022-12-11T01:02:52.771Z,16.83
2022-12-11T01:05:19.698Z,18.45
2022-12-11T01:07:46.597Z,17.15
2022-12-11T01:10:26.258Z,19.90
2022-12-11T01:13:04.666Z,14.82
2022-12-11T01:15:38.675Z,18.48
2022-12-11T01:18:08.160Z,15.43
2022-12-11T01:20:35.211Z,14.85
2022-12-11T01:23:02.136Z,14.23
2022-12-11T01:25:29.382Z,16.08
2022-12-11T01:27:56.537Z,14.02
2022-12-11T01:30:25.310Z,15.27
2022-12-11T01:32:52.575Z,16.62
2022-12-11T01:35:20.080Z,14.60
2022-12-11T01:37:47.202Z,12.63
2022-12-11T01:40:16.188Z,14.57
2022-12-11T01:42:43.178Z,14.40
2022-12-11T01:45:16.037Z,12.95
2022-12-11T01:47:44.060Z,14.85
2022-12-11T01:50:11.782Z,14.98
2022-12-11T01:52:38.701Z,14.60
2022-12-11T01:55:06.237Z,13.32
2022-12-11T01:57:33.100Z,17.62
2022-12-11T02:02:28.790Z,15.68
2022-12-11T02:04:55.705Z,17.27
2022-12-11T02:09:49.659Z,15.05
2022-12-11T02:12:25.614Z,17.12
2022-12-11T02:15:17.727Z,16.23
2022-12-11T02:17:49.103Z,16.62
2022-12-11T02:20:29.670Z,15.60
2022-12-11T02:23:18.923Z,19.25
2022-12-11T02:26:15.653Z,14.10
2022-12-11T02:28:55.052Z,17.40
2022-12-11T02:31:37.281Z,15.90
2022-12-11T02:34:22.005Z,14.45
2022-12-11T02:36:56.091Z,15.77
2022-12-11T02:39:25.504Z,15.23
2022-12-11T02:41:52.385Z,18.62
2022-12-11T02:46:52.798Z,18.73
2022-12-11T02:49:21.328Z,18.00
2022-12-11T02:51:48.316Z,17.58
2022-12-11T02:54:21.535Z,18.45
2022-12-11T02:56:56.145Z,16.27
2022-12-11T02:59:30.432Z,16.10
2022-12-11T03:01:57.360Z,18.65
2022-12-11T03:04:25.121Z,18.92
2022-12-11T03:06:55.260Z,19.67
2022-12-11T03:09:22.405Z,19.62
2022-12-11T03:11:49.278Z,21.30
2022-12-11T03:16:55.362Z,17.73
2022-12-11T03:19:35.868Z,18.23
2022-12-11T03:22:11.880Z,18.65
2022-12-11T03:24:45.931Z,18.30
2022-12-11T03:27:42.185Z,16.27
2022-12-11T03:30:13.423Z,18.55
2022-12-11T03:33:04.755Z,20.83
2022-12-11T03:35:36.257Z,21.50
2022-12-11T03:38:07.225Z,20.08
2022-12-11T03:40:36.113Z,19.87
2022-12-11T03:43:03.498Z,18.05
2022-12-11T03:45:30.732Z,19.30
2022-12-11T03:48:00.076Z,21.02
2022-12-11T03:50:29.250Z,21.37
2022-12-11T03:52:56.316Z,19.80
2022-12-11T03:55:23.588Z,22.67
2022-12-11T03:57:50.653Z,19.75
2022-12-11T04:00:19.848Z,21.60
2022-12-11T04:03:11.359Z,19.58
2022-12-11T04:05:41.940Z,19.12
2022-12-11T04:08:08.939Z,18.52
2022-12-11T04:10:35.934Z,23.67
2022-12-11T04:13:02.839Z,23.90
2022-12-11T04:18:14.966Z,21.50
2022-12-11T04:21:00.607Z,23.27
2022-12-11T04:23:46.166Z,22.40
2022-12-11T04:26:15.765Z,22.37
2022-12-11T04:28:43.664Z,26.00
2022-12-11T04:31:15.561Z,23.87
2022-12-11T04:33:42.780Z,23.20
2022-12-11T04:36:11.054Z,24.80
2022-12-11T04:38:38.150Z,21.33
2022-12-11T04:41:12.329Z,27.10
2022-12-11T04:43:39.260Z,25.88
2022-12-11T04:46:09.119Z,27.80
2022-12-11T04:48:36.488Z,24.85
2022-12-11T04:51:04.056Z,24.83
2022-12-11T04:53:31.230Z,27.50
2022-12-11T04:55:58.208Z,32.50
2022-12-11T04:58:26.002Z,23.02
2022-12-11T05:00:53.284Z,31.80
2022-12-11T05:03:20.765Z,28.92
2022-12-11T05:05:49.520Z,31.33
2022-12-11T05:08:20.179Z,28.92
2022-12-11T05:10:59.362Z,26.75
2022-12-11T05:13:27.551Z,29.40
2022-12-11T05:15:54.910Z,25.00
2022-12-11T05:18:22.016Z,27.40
2022-12-11T05:21:00.457Z,29.23
2022-12-11T05:23:27.474Z,31.98
2022-12-11T05:25:59.925Z,23.20
2022-12-11T05:28:28.850Z,30.12
2022-12-11T05:31:00.908Z,31.08
2022-12-11T05:33:28.342Z,24.85
2022-12-11T05:35:55.330Z,25.30
2022-12-11T05:38:22.834Z,29.87
2022-12-11T05:41:00.938Z,30.48
2022-12-11T05:43:29.066Z,31.27
2022-12-11T05:45:56.777Z,29.42
2022-12-11T05:48:23.748Z,23.75
2022-12-11T05:51:01.229Z,24.70
2022-12-11T05:55:55.160Z,26.55
2022-12-11T05:58:22.116Z,30.40
2022-12-11T06:00:48.989Z,32.35
2022-12-11T06:05:43.242Z,30.98
2022-12-11T06:08:10.284Z,28.23
2022-12-11T06:10:37.404Z,24.65
2022-12-11T06:13:04.587Z,26.10
2022-12-11T06:15:31.456Z,30.85
2022-12-11T06:20:24.999Z,26.80
2022-12-11T06:25:18.598Z,28.20
2022-12-11T06:27:45.467Z,24.15
2022-12-11T06:32:39.219Z,29.02
2022-12-11T06:37:33.006Z,26.37
2022-12-11T06:42:26.565Z,28.85
2022-12-11T06:47:20.088Z,22.05
2022-12-11T06:52:18.241Z,23.02
2022-12-11T06:54:45.558Z,25.40
2022-12-11T06:57:12.429Z,28.12
2022-12-11T07:02:05.992Z,24.25
2022-12-11T07:04:33.416Z,23.77
2022-12-11T07:07:00.252Z,21.98
2022-12-11T07:11:53.859Z,22.02
2022-12-11T07:14:20.785Z,21.33
2022-12-11T07:16:47.735Z,24.87
2022-12-11T07:19:14.650Z,23.58
2022-12-11T07:24:08.368Z,22.73
2022-12-11T07:26:35.365Z,24.70
2022-12-11T07:29:02.231Z,26.80
2022-12-11T07:33:58.818Z,24.17
2022-12-11T07:36:26.422Z,20.85
2022-12-11T07:38:53.384Z,24.15
2022-12-11T07:41:20.992Z,23.90
2022-12-11T07:43:48.040Z,23.00
2022-12-11T07:46:17.666Z,25.10
2022-12-11T07:48:46.243Z,24.20
2022-12-11T07:51:23.031Z,24.05
2022-12-11T07:53:51.244Z,21.08
2022-12-11T07:56:19.465Z,24.42
2022-12-11T07:58:47.063Z,25.20
2022-12-11T08:01:29.149Z,23.83
2022-12-11T08:03:56.978Z,22.08
2022-12-11T08:06:29.547Z,22.20
2022-12-11T08:08:57.493Z,22.85
2022-12-11T08:11:25.118Z,26.00
2022-12-11T08:13:52.218Z,21.75
2022-12-11T08:16:19.841Z,21.48
2022-12-11T08:18:47.859Z,20.52
2022-12-11T08:21:17.533Z,19.05
2022-12-11T08:23:44.922Z,21.23
2022-12-11T08:26:18.500Z,18.92
2022-12-11T08:28:45.350Z,22.35
2022-12-11T08:33:40.576Z,21.25
2022-12-11T08:36:09.802Z,17.80
2022-12-11T08:38:37.092Z,19.85
2022-12-11T08:41:18.380Z,18.55
2022-12-11T08:43:45.265Z,20.48
2022-12-11T08:48:40.466Z,23.37
2022-12-11T08:51:09.532Z,18.83
2022-12-11T08:53:36.580Z,18.98
2022-12-11T08:56:05.024Z,18.90
2022-12-11T08:58:31.898Z,19.73
2022-12-11T09:03:25.652Z,19.65
2022-12-11T09:05:52.555Z,22.83
2022-12-11T09:08:19.454Z,18.70
2022-12-11T09:10:46.380Z,19.48
2022-12-11T09:15:43.034Z,19.85
2022-12-11T09:18:09.877Z,18.80
2022-12-11T09:23:03.739Z,19.95
2022-12-11T09:25:30.601Z,20.33
2022-12-11T09:30:24.176Z,17.75
2022-12-11T09:35:17.812Z,20.50
2022-12-11T09:37:44.717Z,19.55
2022-12-11T09:40:12.576Z,18.70
2022-12-11T09:42:55.474Z,15.63
2022-12-11T09:45:22.489Z,18.90
2022-12-11T09:47:52.967Z,16.17
2022-12-11T09:50:32.945Z,17.15
2022-12-11T09:53:18.134Z,14.95
2022-12-11T09:56:03.208Z,15.23
2022-12-11T09:58:39.364Z,16.37
2022-12-11T10:01:19.048Z,18.15
2022-12-11T10:03:56.156Z,16.58
2022-12-11T10:06:22.949Z,18.08
2022-12-11T10:12:05.579Z,18.70
2022-12-11T10:15:00.339Z,18.42
2022-12-11T10:17:32.823Z,14.35
2022-12-11T10:20:22.555Z,17.58
2022-12-11T10:22:50.953Z,19.75
2022-12-11T10:25:40.565Z,18.37
2022-12-11T10:28:19.205Z,16.85
2022-12-11T10:31:17.394Z,17.33
2022-12-11T10:33:50.343Z,16.85
2022-12-11T10:36:21.402Z,17.50
2022-12-11T10:38:48.269Z,16.08
2022-12-11T10:43:47.506Z,17.60
2022-12-11T10:46:21.790Z,18.17
2022-12-11T10:48:54.809Z,14.30
2022-12-11T10:51:24.822Z,18.50
2022-12-11T10:53:53.894Z,18.65
2022-12-11T10:56:28.737Z,13.65
2022-12-11T10:58:57.063Z,13.25
2022-12-11T11:01:26.201Z,14.85
2022-12-11T11:04:01.255Z,16.67
2022-12-11T11:06:28.126Z,16.98
2022-12-11T11:11:35.196Z,14.43
2022-12-11T11:14:16.389Z,17.10
2022-12-11T11:16:45.740Z,15.98
2022-12-11T11:19:24.246Z,17.55
2022-12-11T11:21:55.812Z,17.37
2022-12-11T11:24:30.665Z,17.83
2022-12-11T11:27:13.100Z,16.58
2022-12-11T11:29:41.266Z,17.02
2022-12-11T11:32:42.587Z,15.23
2022-12-11T11:35:12.527Z,16.67
2022-12-11T11:37:42.540Z,17.15
2022-12-11T11:40:17.790Z,16.30
2022-12-11T11:42:53.088Z,17.05
2022-12-11T11:45:27.145Z,15.55
2022-12-11T11:48:13.650Z,15.05
2022-12-11T11:50:45.812Z,18.08
2022-12-11T11:53:19.751Z,13.98
2022-12-11T11:56:18.863Z,14.50
2022-12-11T11:58:59.398Z,17.95
2022-12-11T12:01:27.079Z,16.12
2022-12-11T12:03:54.370Z,15.90
2022-12-11T12:06:39.941Z,14.82
2022-12-11T12:09:13.233Z,17.02
2022-12-11T12:11:52.229Z,18.90
2022-12-11T12:14:50.995Z,18.33
2022-12-11T12:17:27.380Z,15.40
2022-12-11T12:20:31.554Z,13.38
2022-12-11T12:23:16.332Z,15.45
2022-12-11T12:25:49.772Z,16.17
2022-12-11T12:28:25.537Z,14.07
2022-12-11T12:31:10.726Z,15.88
2022-12-11T12:33:56.204Z,13.65
2022-12-11T12:36:46.893Z,15.27
2022-12-11T12:42:48.674Z,16.58
2022-12-11T12:45:21.583Z,16.15
2022-12-11T12:47:53.164Z,13.23
2022-12-11T12:50:23.315Z,14.80
2022-12-11T12:52:51.581Z,14.23
2022-12-11T12:55:27.428Z,14.57
2022-12-11T12:58:00.653Z,18.12
2022-12-11T13:00:31.864Z,15.23
2022-12-11T13:03:00.621Z,14.43
2022-12-11T13:05:38.292Z,14.60
2022-12-11T13:08:06.344Z,16.15
2022-12-11T13:10:34.165Z,18.08
2022-12-11T13:13:02.347Z,14.27
2022-12-11T13:15:40.820Z,16.55
2022-12-11T13:18:31.771Z,15.88
2022-12-11T13:20:58.662Z,13.88
2022-12-11T13:26:02.381Z,14.77
2022-12-11T13:28:38.363Z,15.65
2022-12-11T13:31:14.005Z,14.63
2022-12-11T13:33:44.137Z,15.30
2022-12-11T13:36:16.687Z,17.48
2022-12-11T13:38:51.168Z,14.25
2022-12-11T13:41:18.800Z,14.05
2022-12-11T13:43:47.750Z,16.42
2022-12-11T13:46:16.288Z,15.45
2022-12-11T13:48:46.925Z,18.35
2022-12-11T13:51:17.468Z,15.80
2022-12-11T13:53:44.489Z,19.73
2022-12-11T13:56:20.266Z,14.13
2022-12-11T13:58:47.456Z,15.05
2022-12-11T14:01:23.342Z,14.82
2022-12-11T14:04:14.218Z,17.73
2022-12-11T14:06:41.198Z,17.60
2022-12-11T14:09:08.791Z,14.95
2022-12-11T14:11:38.627Z,13.35
2022-12-11T14:14:08.508Z,17.40
2022-12-11T14:16:35.488Z,17.23
2022-12-11T14:19:06.738Z,15.65
2022-12-11T14:21:33.936Z,20.30
2022-12-11T14:24:03.820Z,15.48
2022-12-11T14:26:34.351Z,17.90
2022-12-11T14:29:01.347Z,19.62
2022-12-11T14:31:37.469Z,17.45
2022-12-11T14:34:30.345Z,15.43
2022-12-11T14:36:58.234Z,17.77
2022-12-11T14:39:47.050Z,16.33
2022-12-11T14:42:25.365Z,18.58
2022-12-11T14:45:03.844Z,16.48
2022-12-11T14:47:34.746Z,16.17
2022-12-11T14:50:04.020Z,16.80
2022-12-11T14:52:34.282Z,15.35
2022-12-11T14:55:08.732Z,14.93
2022-12-11T14:57:36.351Z,16.85
2022-12-11T15:00:05.437Z,17.67
2022-12-11T15:02:34.757Z,17.62
2022-12-11T15:05:20.508Z,12.50
2022-12-11T15:07:56.951Z,14.80
2022-12-11T15:10:55.857Z,14.93
2022-12-11T15:13:25.811Z,14.48
2022-12-11T15:15:53.763Z,12.43
2022-12-11T15:18:34.657Z,14.50
2022-12-11T15:21:04.097Z,14.50
2022-12-11T15:23:31.125Z,15.07
2022-12-11T15:25:59.677Z,12.55
2022-12-11T15:28:44.762Z,17.85
2022-12-11T15:31:31.097Z,14.00
2022-12-11T15:33:58.627Z,13.02
2022-12-11T15:36:31.540Z,11.95
2022-12-11T15:38:58.691Z,11.02
2022-12-11T15:41:25.884Z,14.75
2022-12-11T15:43:58.309Z,13.23
2022-12-11T15:46:26.176Z,14.77
2022-12-11T15:48:53.171Z,13.75
2022-12-11T15:51:20.074Z,12.65
2022-12-11T15:56:17.684Z,12.35
2022-12-11T15:58:45.458Z,15.18
2022-12-11T16:01:12.453Z,13.05
2022-12-11T16:03:39.412Z,13.62
2022-12-11T16:06:06.492Z,14.65
2022-12-11T16:08:33.718Z,15.07
2022-12-11T16:11:00.650Z,15.57
2022-12-11T16:15:54.459Z,12.40
2022-12-11T16:18:23.402Z,9.38
2022-12-11T16:20:51.524Z,13.07
2022-12-11T16:23:18.851Z,15.50
2022-12-11T16:25:46.885Z,14.65
2022-12-11T16:28:15.680Z,13.80
2022-12-11T16:30:43.695Z,15.95
2022-12-11T16:33:13.223Z,15.15
2022-12-11T16:35:41.802Z,15.82
2022-12-11T16:38:10.200Z,15.50
2022-12-11T16:40:37.948Z,16.30
2022-12-11T16:43:05.626Z,10.15
2022-12-11T16:45:32.724Z,11.82
2022-12-11T16:48:03.377Z,13.82
2022-12-11T16:50:30.343Z,15.30
2022-12-11T16:52:57.511Z,15.05
2022-12-11T16:55:24.358Z,17.20
2022-12-11T17:00:18.084Z,13.15
2022-12-11T17:02:45.034Z,14.25
2022-12-11T17:05:12.386Z,12.68
2022-12-11T17:07:40.478Z,14.00
2022-12-11T17:10:07.992Z,14.80
2022-12-11T17:12:35.139Z,14.68
2022-12-11T17:15:02.030Z,12.40
2022-12-11T17:19:55.771Z,14.82
2022-12-11T17:22:22.875Z,15.55
2022-12-11T17:24:49.837Z,12.18
2022-12-11T17:27:16.728Z,16.75
2022-12-11T17:32:10.274Z,14.73
2022-12-11T17:37:06.242Z,12.05
2022-12-11T17:39:33.544Z,17.40
2022-12-11T17:42:00.627Z,14.80
2022-12-11T17:44:30.681Z,12.68
2022-12-11T17:46:58.502Z,13.77
2022-12-11T17:49:25.446Z,13.85
2022-12-11T17:51:53.409Z,13.32
2022-12-11T17:54:20.355Z,15.13
2022-12-11T17:56:47.337Z,11.43
2022-12-11T17:59:14.200Z,14.10
2022-12-11T18:04:07.884Z,13.30
2022-12-11T18:06:34.826Z,15.07
2022-12-11T18:09:01.704Z,13.27
2022-12-11T18:13:55.327Z,20.20
2022-12-11T18:16:28.029Z,12.07
2022-12-11T18:18:56.612Z,13.27
2022-12-11T18:21:26.197Z,12.00
2022-12-11T18:23:53.370Z,14.60
2022-12-11T18:26:20.695Z,13.18
2022-12-11T18:28:48.233Z,13.70
2022-12-11T18:31:15.281Z,14.07
2022-12-11T18:33:43.568Z,12.60
2022-12-11T18:36:11.771Z,18.83
2022-12-11T18:38:39.212Z,15.85
2022-12-11T18:41:08.234Z,14.40
2022-12-11T18:43:35.781Z,13.43
2022-12-11T18:46:14.525Z,12.65
2022-12-11T18:48:42.326Z,12.50
2022-12-11T18:51:12.378Z,12.15
2022-12-11T18:53:42.012Z,11.15
2022-12-11T18:56:11.221Z,12.88
2022-12-11T18:58:38.358Z,10.30
2022-12-11T19:01:25.877Z,14.82
2022-12-11T19:04:03.591Z,11.10
2022-12-11T19:06:33.325Z,12.63
2022-12-11T19:09:00.591Z,10.48
2022-12-11T19:11:29.679Z,12.43
2022-12-11T19:13:56.961Z,11.18
2022-12-11T19:16:40.617Z,14.68
2022-12-11T19:19:12.525Z,10.88
2022-12-11T19:21:39.721Z,14.35
2022-12-11T19:24:08.453Z,13.18
2022-12-11T19:26:35.771Z,13.65
2022-12-11T19:29:03.161Z,14.82
2022-12-11T19:31:31.602Z,11.32
2022-12-11T19:33:59.901Z,11.88
2022-12-11T19:36:28.016Z,13.20
2022-12-11T19:39:01.138Z,11.45
2022-12-11T19:41:28.710Z,11.90
2022-12-11T19:43:57.087Z,14.20
2022-12-11T19:46:24.943Z,12.30
2022-12-11T19:48:54.297Z,12.43
2022-12-11T19:51:29.844Z,12.55
2022-12-11T19:53:57.393Z,12.75
2022-12-11T19:56:24.320Z,11.32
2022-12-11T19:58:51.225Z,10.88
2022-12-11T20:01:19.807Z,13.70
2022-12-11T20:03:46.742Z,9.85
2022-12-11T20:08:45.714Z,12.10
2022-12-11T20:11:17.825Z,10.90
2022-12-11T20:13:46.190Z,12.65
2022-12-11T20:16:13.756Z,10.68
2022-12-11T20:18:40.818Z,11.15
2022-12-11T20:21:10.095Z,11.30
2022-12-11T20:23:36.967Z,11.75
2022-12-11T20:28:34.400Z,15.82
2022-12-11T20:33:43.626Z,10.93
2022-12-11T20:36:12.950Z,14.38
2022-12-11T20:38:40.347Z,13.68
2022-12-11T20:41:10.787Z,11.80
2022-12-11T20:43:38.008Z,11.82
2022-12-11T20:46:10.044Z,13.10
2022-12-11T20:48:37.423Z,13.55
2022-12-11T20:51:06.442Z,13.68
2022-12-11T20:53:35.098Z,10.18
2022-12-11T20:56:02.400Z,13.32
2022-12-11T20:58:29.255Z,10.48
2022-12-11T21:03:22.924Z,12.80
2022-12-11T21:05:49.804Z,13.05
2022-12-11T21:10:44.841Z,10.65
2022-12-11T21:13:11.738Z,13.18
2022-12-11T21:15:39.370Z,12.70
2022-12-11T21:18:07.374Z,11.15
2022-12-11T21:20:35.052Z,10.73
2022-12-11T21:23:02.789Z,11.95
2022-12-11T21:25:29.679Z,10.35
2022-12-11T21:27:56.523Z,11.75
2022-12-11T21:32:50.165Z,12.23
2022-12-11T21:37:43.818Z,10.45
2022-12-11T21:40:11.146Z,8.85
2022-12-11T21:42:37.992Z,11.18
2022-12-11T21:47:52.053Z,13.38
2022-12-11T21:50:19.115Z,10.70
2022-12-11T21:52:45.970Z,11.43
2022-12-11T21:57:40.188Z,9.98
2022-12-11T22:02:37.557Z,11.32
2022-12-11T22:05:08.096Z,11.05
2022-12-11T22:07:34.993Z,13.23
2022-12-11T22:10:02.127Z,11.98
2022-12-11T22:12:29.708Z,10.90
2022-12-11T22:14:56.703Z,12.18
2022-12-11T22:17:24.016Z,14.35
2022-12-11T22:19:53.803Z,13.65
2022-12-11T22:22:20.692Z,10.88
2022-12-11T22:24:47.886Z,10.02
2022-12-11T22:27:19.067Z,9.77
2022-12-11T22:29:48.925Z,10.52
2022-12-11T22:32:15.799Z,11.93
2022-12-11T22:37:09.412Z,10.73
2022-12-11T22:39:36.271Z,12.63
2022-12-11T22:44:30.274Z,10.88
2022-12-11T22:49:24.495Z,8.43
2022-12-11T22:51:51.384Z,8.10
2022-12-11T22:56:44.925Z,13.38
2022-12-11T22:59:11.836Z,13.52
2022-12-11T23:04:05.625Z,12.88
2022-12-11T23:06:32.635Z,15.15
2022-12-11T23:09:00.497Z,14.38
2022-12-11T23:11:30.175Z,13.38
2022-12-11T23:13:57.533Z,17.87
2022-12-11T23:16:26.053Z,15.73
2022-12-11T23:18:53.771Z,15.18
2022-12-11T23:21:21.978Z,14.73
2022-12-11T23:23:49.285Z,14.05
2022-12-11T23:26:18.849Z,14.02
2022-12-11T23:28:46.926Z,12.10
2022-12-11T23:31:14.343Z,13.02
2022-12-11T23:33:41.413Z,16.77
2022-12-11T23:36:09.218Z,11.52
2022-12-11T23:38:36.495Z,16.05
2022-12-11T23:41:04.201Z,13.80
2022-12-11T23:43:31.068Z,13.43
2022-12-11T23:48:24.866Z,15.85
2022-12-11T23:50:52.053Z,11.30
2022-12-11T23:53:18.976Z,15.10
2022-12-11T23:55:45.962Z,13.80
2022-12-11T23:58:12.857Z,15.18
